Time;durP1;ratioP1;P1;durP2;ratioP2;P2;SDS_P1;SDS_P2;PMS_P1;PMS_P2;Temp;Humidity;BMP_temperature;BMP_pressure;BME280_temperature;BME280_humidity;BME280_pressure;Samples;Min_cycle;Max_cycle;Signal;HPM_P1;HPM_P2
2022/04/09 00:00:43;;;;;;;49.00;34.33;;;21.90;55.50;;;;;;4933814;29;20038;-72
2022/04/09 00:03:10;;;;;;;43.22;33.17;;;21.90;55.40;;;;;;4934247;28;20036;-72
2022/04/09 00:05:36;;;;;;;46.45;32.90;;;21.90;55.30;;;;;;4934164;29;20178;-72
2022/04/09 00:08:02;;;;;;;42.85;32.90;;;21.90;55.30;;;;;;4933107;29;20369;-72
2022/04/09 00:10:28;;;;;;;43.95;31.00;;;21.90;55.10;;;;;;4934800;29;20020;-72
2022/04/09 00:12:54;;;;;;;42.90;32.70;;;21.90;55.00;;;;;;4933881;29;20034;-72
2022/04/09 00:15:20;;;;;;;39.53;31.95;;;22.00;55.00;;;;;;4934538;29;20362;-72
2022/04/09 00:17:47;;;;;;;41.70;31.17;;;21.90;54.90;;;;;;4934426;29;20059;-72
2022/04/09 00:20:15;;;;;;;42.17;29.67;;;22.00;54.90;;;;;;4933660;29;20040;-72
2022/04/09 00:22:41;;;;;;;38.08;29.08;;;22.00;54.90;;;;;;4935592;29;20468;-72
2022/04/09 00:25:09;;;;;;;41.95;30.27;;;21.90;54.70;;;;;;4934676;29;20094;-72
2022/04/09 00:27:35;;;;;;;40.95;29.40;;;21.90;54.60;;;;;;4933053;29;20115;-72
2022/04/09 00:30:05;;;;;;;38.00;29.02;;;21.90;54.60;;;;;;4934520;29;20437;-72
2022/04/09 00:32:33;;;;;;;38.60;27.98;;;21.90;54.50;;;;;;4933621;29;20032;-73
2022/04/09 00:35:00;;;;;;;36.20;28.00;;;21.90;54.50;;;;;;4933510;29;20119;-72
2022/04/09 00:37:25;;;;;;;37.33;27.85;;;21.90;54.40;;;;;;4932761;29;20035;-73
2022/04/09 00:39:52;;;;;;;38.50;27.20;;;21.90;54.50;;;;;;4934338;29;20032;-72
2022/04/09 00:42:18;;;;;;;36.45;27.35;;;21.90;54.40;;;;;;4933528;29;20099;-73
2022/04/09 00:44:45;;;;;;;36.10;26.50;;;21.90;54.30;;;;;;4934695;29;20098;-73
2022/04/09 00:47:11;;;;;;;37.00;26.40;;;21.90;54.30;;;;;;4932889;29;20473;-73
2022/04/09 00:49:39;;;;;;;36.08;24.55;;;21.90;54.30;;;;;;4934511;29;20043;-73
2022/04/09 00:52:07;;;;;;;33.30;25.65;;;21.90;54.20;;;;;;4932953;29;20046;-73
2022/04/09 00:54:35;;;;;;;34.63;25.55;;;21.90;54.10;;;;;;4917444;29;20083;-73
2022/04/09 00:57:05;;;;;;;34.22;24.63;;;21.90;54.10;;;;;;4932874;29;20441;-73
2022/04/09 00:59:33;;;;;;;31.90;24.05;;;21.90;54.10;;;;;;4933113;29;20062;-73
2022/04/09 01:01:59;;;;;;;32.45;22.63;;;21.90;54.00;;;;;;4917313;29;20035;-73
2022/04/09 01:04:25;;;;;;;31.02;23.23;;;21.80;53.90;;;;;;4916583;29;20036;-72
2022/04/09 01:06:51;;;;;;;31.92;24.33;;;21.90;53.90;;;;;;4932453;29;20042;-73
2022/04/09 01:09:17;;;;;;;31.63;22.52;;;21.90;53.90;;;;;;4931937;29;20058;-73
2022/04/09 01:11:43;;;;;;;30.75;22.75;;;21.90;53.80;;;;;;4932920;29;20036;-72
2022/04/09 01:14:13;;;;;;;29.35;22.08;;;21.90;53.70;;;;;;4933138;29;20038;-72
2022/04/09 01:16:39;;;;;;;;;;;21.90;53.70;;;;;;4933282;29;20388;-72
2022/04/09 01:19:05;;;;;;;31.40;22.73;;;21.90;53.60;;;;;;4933097;29;19914;-72
2022/04/09 01:21:35;;;;;;;29.42;21.27;;;21.90;53.60;;;;;;4906479;29;20024;-73
2022/04/09 01:24:04;;;;;;;27.40;20.85;;;21.90;53.60;;;;;;4937009;29;20038;-73
2022/04/09 01:26:31;;;;;;;30.13;20.70;;;21.90;53.60;;;;;;4936372;29;20035;-72
2022/04/09 01:28:58;;;;;;;28.63;20.77;;;21.90;53.50;;;;;;4936495;29;20272;-72
2022/04/09 01:31:24;;;;;;;27.92;20.60;;;21.90;53.50;;;;;;4936537;29;20024;-73
2022/04/09 01:33:50;;;;;;;50.42;38.80;;;21.90;53.50;;;;;;4936708;29;20027;-72
2022/04/09 01:36:15;;;;;;;63.10;49.53;;;21.90;51.90;;;;;;4920599;29;20036;-73
2022/04/09 01:38:41;;;;;;;47.50;37.25;;;21.60;47.30;;;;;;4936326;29;20043;-72
2022/04/09 01:41:07;;;;;;;31.77;22.85;;;21.50;44.10;;;;;;4937832;29;20028;-73
2022/04/09 01:43:41;;;;;;;26.67;18.20;;;21.30;41.70;;;;;;4936860;29;20035;-75
2022/04/09 01:46:07;;;;;;;33.50;23.45;;;21.30;46.60;;;;;;4919989;29;20461;-75
2022/04/09 01:48:33;;;;;;;24.45;14.85;;;21.40;48.00;;;;;;4937349;29;20566;-75
2022/04/09 01:50:59;;;;;;;23.02;13.95;;;21.40;49.60;;;;;;4936289;29;20091;-75
2022/04/09 01:53:25;;;;;;;23.05;13.15;;;21.50;50.20;;;;;;4936516;29;20644;-75
2022/04/09 01:55:51;;;;;;;25.27;14.70;;;21.50;50.50;;;;;;4936386;29;20071;-75
2022/04/09 01:58:16;;;;;;;24.85;13.15;;;21.50;50.10;;;;;;4935467;29;20039;-75
2022/04/09 02:00:47;;;;;;;21.17;13.55;;;21.50;50.40;;;;;;4936238;29;20028;-75
2022/04/09 02:03:12;;;;;;;21.67;14.35;;;21.50;50.40;;;;;;4936333;29;20373;-75
2022/04/09 02:05:38;;;;;;;19.10;13.18;;;21.50;50.10;;;;;;4936218;29;20042;-75
2022/04/09 02:08:04;;;;;;;24.63;15.02;;;21.50;50.10;;;;;;4935223;29;20415;-75
2022/04/09 02:10:31;;;;;;;20.95;14.02;;;21.50;50.00;;;;;;4920517;29;20040;-75
2022/04/09 02:13:01;;;;;;;21.90;14.07;;;21.60;50.30;;;;;;4936258;29;20151;-75
2022/04/09 02:15:28;;;;;;;22.00;14.35;;;21.60;50.10;;;;;;4935945;29;20031;-74
2022/04/09 02:17:53;;;;;;;22.13;13.50;;;21.60;50.20;;;;;;4935330;29;20432;-75
2022/04/09 02:20:19;;;;;;;27.75;14.63;;;21.60;50.20;;;;;;4934724;29;20027;-75
2022/04/09 02:22:45;;;;;;;20.88;13.93;;;21.60;50.20;;;;;;4935856;29;20399;-75
2022/04/09 02:25:14;;;;;;;21.40;13.45;;;21.60;50.40;;;;;;4935950;29;20463;-75
2022/04/09 02:27:40;;;;;;;20.35;13.45;;;21.60;50.60;;;;;;4900639;29;20028;-76
2022/04/09 02:30:08;;;;;;;23.77;13.43;;;21.60;50.30;;;;;;4900855;29;20047;-75
2022/04/09 02:32:51;;;;;;;20.88;12.98;;;21.60;50.20;;;;;;4916782;29;20028;-75
2022/04/09 02:35:20;;;;;;;19.42;12.07;;;21.60;50.30;;;;;;4916647;29;20087;-75
2022/04/09 02:37:46;;;;;;;18.52;12.85;;;21.60;50.30;;;;;;4929391;29;20051;-75
2022/04/09 02:40:13;;;;;;;19.35;12.15;;;21.60;50.30;;;;;;4935631;29;20035;-75
2022/04/09 02:42:41;;;;;;;18.33;11.63;;;21.60;50.20;;;;;;4935505;29;20027;-75
2022/04/09 02:45:08;;;;;;;17.48;12.00;;;21.60;50.20;;;;;;4935598;29;20032;-76
2022/04/09 02:47:36;;;;;;;17.65;11.60;;;21.60;50.20;;;;;;4934780;29;20060;-75
2022/04/09 02:50:06;;;;;;;20.80;11.93;;;21.60;50.10;;;;;;4935371;29;20031;-75
2022/04/09 02:52:40;;;;;;;18.50;11.88;;;21.50;50.10;;;;;;4934208;23;20040;-73
2022/04/09 02:55:08;;;;;;;19.02;12.65;;;21.50;49.90;;;;;;4919598;29;20103;-73
2022/04/09 02:57:37;;;;;;;19.35;11.40;;;21.60;50.00;;;;;;4946218;29;20066;-73
2022/04/09 03:00:06;;;;;;;19.25;12.25;;;21.50;49.80;;;;;;4954441;29;20039;-73
2022/04/09 03:02:36;;;;;;;17.88;11.38;;;21.50;50.10;;;;;;4954328;29;20472;-73
2022/04/09 03:05:03;;;;;;;18.75;11.82;;;21.50;49.80;;;;;;4938537;29;20480;-73
2022/04/09 03:07:30;;;;;;;20.73;11.80;;;21.50;49.70;;;;;;4943439;29;20039;-73
2022/04/09 03:09:56;;;;;;;16.75;10.82;;;21.50;50.90;;;;;;4950671;29;20035;-73
2022/04/09 03:12:22;;;;;;;16.65;10.82;;;21.50;50.30;;;;;;4955767;29;20058;-72
2022/04/09 03:14:48;;;;;;;17.13;10.60;;;21.50;50.20;;;;;;4954094;29;20062;-73
2022/04/09 03:17:14;;;;;;;17.10;10.65;;;21.60;50.20;;;;;;4953126;29;20035;-73
2022/04/09 03:19:40;;;;;;;17.30;11.13;;;21.60;50.10;;;;;;4954060;29;20038;-73
2022/04/09 03:22:08;;;;;;;17.13;10.55;;;21.60;50.20;;;;;;4953882;29;20035;-73
2022/04/09 03:24:35;;;;;;;18.15;10.85;;;21.60;50.10;;;;;;4953845;29;20044;-73
2022/04/09 03:27:03;;;;;;;16.50;10.55;;;21.60;50.30;;;;;;4946899;29;20035;-73
2022/04/09 03:29:30;;;;;;;16.58;10.65;;;21.50;50.40;;;;;;4919236;29;20086;-72
2022/04/09 03:31:57;;;;;;;18.83;10.10;;;21.50;50.10;;;;;;4934626;29;20032;-73
2022/04/09 03:34:23;;;;;;;16.60;10.70;;;21.50;50.30;;;;;;4918993;29;20032;-72
2022/04/09 03:36:49;;;;;;;15.15;9.50;;;21.50;50.30;;;;;;4934869;29;20539;-73
2022/04/09 03:39:15;;;;;;;16.40;9.25;;;21.50;50.20;;;;;;4934229;29;20047;-73
2022/04/09 03:41:42;;;;;;;16.40;10.20;;;21.50;50.20;;;;;;4933778;29;20039;-72
2022/04/09 03:44:08;;;;;;;15.15;9.48;;;21.50;50.10;;;;;;4934660;29;20043;-73
2022/04/09 03:46:42;;;;;;;17.13;9.85;;;21.50;50.10;;;;;;4935725;29;20032;-73
2022/04/09 03:49:13;;;;;;;15.48;9.20;;;21.50;50.40;;;;;;4927001;29;20027;-73
2022/04/09 03:51:41;;;;;;;15.43;9.55;;;21.50;49.90;;;;;;4953283;29;20043;-73
2022/04/09 03:54:09;;;;;;;15.30;9.68;;;21.50;50.10;;;;;;4953486;29;20113;-73
2022/04/09 03:56:35;;;;;;;14.63;9.18;;;21.50;50.00;;;;;;4950900;29;20119;-73
2022/04/09 03:59:02;;;;;;;14.23;8.90;;;21.50;50.30;;;;;;4933820;29;20038;-74
2022/04/09 04:01:28;;;;;;;12.82;7.93;;;21.50;49.90;;;;;;4918671;29;20067;-73
2022/04/09 04:03:57;;;;;;;14.65;9.05;;;21.50;50.30;;;;;;4934064;29;20027;-73
2022/04/09 04:06:25;;;;;;;14.13;9.30;;;21.50;49.90;;;;;;4903603;29;20040;-73
2022/04/09 04:08:57;;;;;;;14.15;8.90;;;21.50;49.80;;;;;;4952759;29;20059;-73
2022/04/09 04:11:24;;;;;;;17.02;9.75;;;21.50;49.80;;;;;;4953131;29;20057;-73
2022/04/09 04:13:51;;;;;;;13.98;8.50;;;21.50;50.00;;;;;;4937303;29;20035;-73
2022/04/09 04:16:17;;;;;;;13.90;8.38;;;21.50;50.30;;;;;;4937024;29;20503;-72
2022/04/09 04:18:44;;;;;;;12.27;8.18;;;21.50;50.00;;;;;;4933380;29;20074;-72
2022/04/09 04:21:11;;;;;;;15.45;8.07;;;21.50;50.10;;;;;;4933819;29;20155;-73
2022/04/09 04:23:39;;;;;;;14.82;8.23;;;21.50;50.00;;;;;;4933884;29;20031;-73
2022/04/09 04:26:18;;;;;;;13.45;8.50;;;21.50;50.00;;;;;;4918042;29;20435;-73
2022/04/09 04:28:48;;;;;;;12.65;8.27;;;21.50;50.10;;;;;;4948874;29;20507;-73
2022/04/09 04:31:16;;;;;;;14.15;8.07;;;21.50;50.20;;;;;;4933703;29;20055;-73
2022/04/09 04:33:43;;;;;;;14.75;8.65;;;21.50;49.80;;;;;;4933520;29;20122;-73
2022/04/09 04:36:09;;;;;;;11.43;7.57;;;21.50;49.80;;;;;;4933591;29;20078;-73
2022/04/09 04:38:39;;;;;;;12.40;7.85;;;21.50;49.90;;;;;;4951058;29;20031;-73
2022/04/09 04:41:05;;;;;;;12.18;7.45;;;21.50;49.80;;;;;;4952896;29;20476;-73
2022/04/09 04:43:32;;;;;;;13.80;7.72;;;21.50;49.70;;;;;;4952546;29;20035;-73
2022/04/09 04:46:01;;;;;;;11.52;7.20;;;21.50;49.70;;;;;;4936733;29;20039;-74
2022/04/09 04:48:27;;;;;;;14.48;8.00;;;21.50;49.60;;;;;;4935697;29;20059;-73
2022/04/09 04:50:55;;;;;;;12.32;7.50;;;21.50;49.70;;;;;;4917976;29;20111;-73
2022/04/09 04:53:23;;;;;;;13.02;7.63;;;21.50;49.70;;;;;;4933223;29;20575;-73
2022/04/09 04:55:55;;;;;;;12.93;8.23;;;21.50;49.60;;;;;;4934720;29;20023;-73
2022/04/09 04:58:24;;;;;;;13.25;7.45;;;21.50;49.60;;;;;;4947421;29;20026;-74
2022/04/09 05:00:57;;;;;;;11.75;7.18;;;21.60;49.70;;;;;;4947720;29;20116;-74
2022/04/09 05:03:23;;;;;;;11.38;7.35;;;21.50;49.70;;;;;;4943838;29;20043;-73
2022/04/09 05:06:08;;;;;;;14.55;7.53;;;21.60;50.30;;;;;;4953752;28;20071;-73
2022/04/09 05:08:35;;;;;;;11.55;7.68;;;21.50;50.40;;;;;;4940499;29;20550;-73
2022/04/09 05:11:02;;;;;;;11.65;7.32;;;21.50;50.70;;;;;;4953521;28;20039;-73
2022/04/09 05:13:31;;;;;;;13.52;6.78;;;21.50;50.30;;;;;;4952326;29;20506;-73
2022/04/09 05:15:58;;;;;;;15.18;7.75;;;21.50;50.40;;;;;;4952514;29;20395;-73
2022/04/09 05:18:25;;;;;;;13.90;7.18;;;21.50;50.10;;;;;;4932512;29;20063;-74
2022/04/09 05:20:52;;;;;;;15.25;8.70;;;21.50;50.80;;;;;;4933216;29;20039;-73
2022/04/09 05:23:18;;;;;;;16.70;7.93;;;21.50;51.00;;;;;;4933102;29;20032;-74
2022/04/09 05:25:45;;;;;;;14.02;7.72;;;21.60;51.50;;;;;;4917490;29;20122;-73
2022/04/09 05:28:11;;;;;;;12.75;7.68;;;21.50;51.90;;;;;;4941097;29;20121;-73
2022/04/09 05:30:44;;;;;;;17.27;6.75;;;21.60;51.30;;;;;;4935296;29;20036;-73
2022/04/09 05:33:10;;;;;;;15.50;7.15;;;21.60;50.60;;;;;;4932980;29;20043;-74
2022/04/09 05:35:40;;;;;;;11.25;6.30;;;21.60;50.70;;;;;;4933202;29;20032;-74
2022/04/09 05:38:07;;;;;;;12.15;6.82;;;21.60;51.30;;;;;;4924209;29;20043;-74
2022/04/09 05:40:36;;;;;;;18.02;6.68;;;21.60;51.90;;;;;;4934134;29;20043;-74
2022/04/09 05:43:09;;;;;;;11.90;7.05;;;21.70;51.70;;;;;;4933135;29;20424;-74
2022/04/09 05:45:35;;;;;;;13.82;7.13;;;21.70;54.60;;;;;;4932918;29;20424;-73
2022/04/09 05:48:02;;;;;;;11.05;6.45;;;21.70;54.10;;;;;;4932906;29;20071;-74
2022/04/09 05:50:39;;;;;;;15.52;7.40;;;21.70;54.70;;;;;;4918869;29;20099;-75
2022/04/09 05:53:06;;;;;;;16.25;6.70;;;21.70;54.20;;;;;;4933029;29;20032;-75
2022/04/09 05:55:32;;;;;;;20.15;7.50;;;21.70;54.50;;;;;;4917232;29;20122;-74
2022/04/09 05:57:58;;;;;;;22.80;7.57;;;21.70;54.00;;;;;;4943683;29;20079;-75
2022/04/09 06:00:25;;;;;;;12.48;6.50;;;21.70;53.40;;;;;;4952074;29;20035;-76
2022/04/09 06:03:03;;;;;;;14.20;6.95;;;21.70;53.00;;;;;;4937290;29;20295;-75
2022/04/09 06:05:34;;;;;;;15.30;7.15;;;21.60;52.60;;;;;;4937321;29;20407;-76
2022/04/09 06:08:03;;;;;;;12.52;6.35;;;21.60;52.00;;;;;;4944919;29;20081;-76
2022/04/09 06:10:29;;;;;;;14.45;7.07;;;21.60;51.80;;;;;;4936259;29;20028;-75
2022/04/09 06:12:55;;;;;;;11.27;6.50;;;21.60;52.70;;;;;;4936046;29;20027;-75
2022/04/09 06:15:25;;;;;;;17.27;7.10;;;21.60;52.30;;;;;;4920507;29;20139;-76
2022/04/09 06:17:55;;;;;;;13.55;6.93;;;21.60;52.40;;;;;;4929119;29;20531;-75
2022/04/09 06:20:22;;;;;;;14.27;6.72;;;21.60;52.40;;;;;;4955315;29;20039;-76
2022/04/09 06:22:48;;;;;;;14.38;7.00;;;21.60;52.60;;;;;;4939026;29;20035;-76
2022/04/09 06:25:18;;;;;;;;;;;21.60;52.50;;;;;;4955549;29;20031;-75
2022/04/09 06:27:44;;;;;;;16.23;6.85;;;21.60;52.40;;;;;;4948062;29;19942;-75
2022/04/09 06:30:13;;;;;;;15.38;6.40;;;21.60;52.40;;;;;;4935764;29;20082;-75
2022/04/09 06:32:41;;;;;;;14.60;6.07;;;21.60;52.20;;;;;;4920042;29;20405;-76
2022/04/09 06:35:09;;;;;;;15.20;7.25;;;21.60;52.30;;;;;;4935843;29;20024;-75
2022/04/09 06:37:37;;;;;;;12.38;5.80;;;21.60;52.20;;;;;;4940482;29;20399;-75
2022/04/09 06:40:09;;;;;;;13.25;6.28;;;21.60;52.20;;;;;;4954906;29;20551;-75
2022/04/09 06:42:37;;;;;;;12.52;6.20;;;21.60;52.20;;;;;;4954650;29;20042;-75
2022/04/09 06:45:20;;;;;;;13.27;6.28;;;21.70;52.10;;;;;;4954743;29;20034;-75
2022/04/09 06:48:06;;;;;;;14.00;6.13;;;21.70;52.00;;;;;;4946190;29;20035;-75
2022/04/09 06:50:37;;;;;;;17.10;6.57;;;21.70;51.90;;;;;;4935566;29;20107;-75
2022/04/09 06:53:03;;;;;;;12.00;6.10;;;21.70;51.80;;;;;;4935229;29;20460;-75
2022/04/09 06:55:32;;;;;;;13.65;6.18;;;21.70;51.70;;;;;;4935524;29;20114;-75
2022/04/09 06:58:02;;;;;;;14.15;6.43;;;21.70;51.70;;;;;;4923841;29;20108;-75
2022/04/09 07:00:33;;;;;;;11.85;5.85;;;21.70;51.60;;;;;;4919485;29;20143;-75
2022/04/09 07:03:03;;;;;;;14.25;5.85;;;21.60;51.60;;;;;;4921411;29;20485;-76
2022/04/09 07:05:28;;;;;;;12.73;6.17;;;21.60;51.60;;;;;;4955501;29;20031;-75
2022/04/09 07:07:54;;;;;;;13.07;6.10;;;21.60;51.60;;;;;;4948450;29;20444;-75
2022/04/09 07:10:20;;;;;;;11.35;5.85;;;21.70;52.00;;;;;;4935070;29;20028;-75
2022/04/09 07:12:46;;;;;;;12.00;5.68;;;21.70;52.00;;;;;;4936148;29;20477;-75
2022/04/09 07:15:12;;;;;;;11.32;5.80;;;21.70;52.30;;;;;;4936220;29;20058;-75
2022/04/09 07:17:38;;;;;;;9.77;5.95;;;21.70;52.30;;;;;;4938691;29;20030;-76
2022/04/09 07:20:09;;;;;;;11.43;5.25;;;21.70;52.90;;;;;;4955300;29;20380;-75
2022/04/09 07:22:37;;;;;;;12.05;6.40;;;21.70;52.40;;;;;;4955248;28;20124;-76
2022/04/09 07:25:04;;;;;;;9.40;5.40;;;21.70;52.20;;;;;;4955274;29;20364;-76
2022/04/09 07:27:48;;;;;;;10.82;5.47;;;21.70;51.80;;;;;;4953427;29;20031;-76
2022/04/09 07:30:20;;;;;;;11.93;5.93;;;21.70;51.60;;;;;;4953961;29;20102;-75
2022/04/09 07:32:47;;;;;;;9.15;5.50;;;21.70;51.50;;;;;;4953907;29;20031;-76
2022/04/09 07:35:17;;;;;;;11.20;5.85;;;21.70;51.40;;;;;;4954965;28;20051;-75
2022/04/09 07:37:45;;;;;;;10.90;5.82;;;21.70;51.50;;;;;;4951005;28;20079;-75
2022/04/09 07:40:12;;;;;;;12.50;5.80;;;21.70;51.40;;;;;;4935723;29;20034;-75
2022/04/09 07:42:39;;;;;;;11.05;5.80;;;21.60;51.30;;;;;;4918752;29;20079;-76
2022/04/09 07:45:06;;;;;;;12.43;5.47;;;21.70;51.20;;;;;;4935630;29;20051;-76
2022/04/09 07:47:32;;;;;;;11.35;5.40;;;21.70;51.30;;;;;;4935410;29;20032;-76
2022/04/09 07:50:00;;;;;;;9.18;5.15;;;21.70;51.20;;;;;;4954813;28;20392;-76
2022/04/09 07:52:26;;;;;;;12.55;5.47;;;21.70;51.20;;;;;;4953436;29;20439;-75
2022/04/09 07:54:52;;;;;;;8.10;4.63;;;21.70;51.20;;;;;;4953393;29;20028;-75
2022/04/09 07:57:18;;;;;;;10.05;4.95;;;21.60;51.20;;;;;;4954280;29;20038;-74
2022/04/09 07:59:44;;;;;;;9.75;5.05;;;21.60;51.20;;;;;;4952488;29;20086;-75
2022/04/09 08:02:09;;;;;;;13.57;5.20;;;21.60;51.20;;;;;;4944477;29;20028;-75
2022/04/09 08:04:35;;;;;;;11.40;5.40;;;21.70;51.50;;;;;;4935460;29;20484;-75
2022/04/09 08:07:01;;;;;;;11.13;4.45;;;21.70;52.00;;;;;;4933972;29;20123;-75
2022/04/09 08:09:26;;;;;;;10.57;5.07;;;21.70;51.80;;;;;;4933919;29;20051;-75
2022/04/09 08:11:53;;;;;;;14.85;5.50;;;21.70;52.20;;;;;;4948293;29;20062;-75
2022/04/09 08:14:19;;;;;;;14.05;4.57;;;21.70;52.50;;;;;;4954192;29;20031;-76
2022/04/09 08:16:45;;;;;;;13.93;3.42;;;21.60;48.00;;;;;;4952850;29;20395;-75
2022/04/09 08:19:11;;;;;;;11.77;3.47;;;21.40;45.10;;;;;;4952882;29;20039;-75
2022/04/09 08:21:37;;;;;;;7.45;2.42;;;21.20;41.30;;;;;;4945147;29;20079;-75
2022/04/09 08:24:03;;;;;;;9.73;2.75;;;21.10;40.20;;;;;;4933854;29;20484;-76
2022/04/09 08:26:28;;;;;;;9.20;2.55;;;21.00;40.30;;;;;;4933772;29;20028;-76
2022/04/09 08:28:54;;;;;;;10.43;2.60;;;21.10;41.40;;;;;;4934211;29;20114;-75
2022/04/09 08:31:22;;;;;;;11.85;3.13;;;21.20;42.20;;;;;;4943436;29;20026;-75
2022/04/09 08:33:48;;;;;;;15.52;3.95;;;21.20;43.10;;;;;;4946715;29;20027;-75
2022/04/09 08:36:14;;;;;;;11.45;3.45;;;21.30;44.30;;;;;;4951816;28;20031;-75
2022/04/09 08:38:39;;;;;;;13.82;4.18;;;21.30;44.60;;;;;;4949721;29;20385;-74
2022/04/09 08:41:05;;;;;;;15.32;4.60;;;21.40;45.10;;;;;;4948215;29;20071;-74
2022/04/09 08:43:32;;;;;;;19.48;5.13;;;21.40;45.30;;;;;;4951370;29;20040;-75
2022/04/09 08:46:02;;;;;;;13.82;4.40;;;21.50;45.30;;;;;;4949843;29;20106;-75
2022/04/09 08:48:28;;;;;;;17.27;5.13;;;21.50;45.20;;;;;;4951403;28;20094;-76
2022/04/09 08:50:55;;;;;;;15.95;4.15;;;21.50;45.30;;;;;;4949536;29;20031;-75
2022/04/09 08:53:21;;;;;;;22.88;8.45;;;21.50;44.60;;;;;;4946408;29;20122;-75
2022/04/09 08:55:48;;;;;;;19.83;10.18;;;21.40;40.30;;;;;;4951883;29;20107;-75
2022/04/09 08:58:14;;;;;;;17.98;9.13;;;21.20;38.70;;;;;;4951242;28;20122;-75
2022/04/09 09:00:42;;;;;;;22.85;8.35;;;21.20;38.30;;;;;;4952042;28;20027;-75
2022/04/09 09:03:10;;;;;;;16.50;7.70;;;21.10;39.20;;;;;;4952996;28;20031;-75
2022/04/09 09:05:45;;;;;;;23.20;7.85;;;21.10;38.20;;;;;;4953713;28;20031;-75
2022/04/09 09:08:11;;;;;;;17.60;7.35;;;21.20;39.30;;;;;;4952024;29;20106;-76
2022/04/09 09:10:38;;;;;;;21.48;8.05;;;21.30;39.80;;;;;;4951645;29;20524;-75
2022/04/09 09:13:05;;;;;;;22.48;8.30;;;21.40;40.70;;;;;;4953461;28;20035;-74
2022/04/09 09:15:57;;;;;;;23.48;7.90;;;21.50;40.70;;;;;;4953545;28;20019;-78
2022/04/09 09:18:24;;;;;;;25.05;8.90;;;21.50;40.80;;;;;;4952164;29;20603;-77
2022/04/09 09:20:58;;;;;;;22.27;8.40;;;21.50;41.50;;;;;;4949205;28;20079;-78
2022/04/09 09:23:31;;;;;;;26.95;15.95;;;21.50;41.10;;;;;;4934406;29;20043;-78
2022/04/09 09:25:58;;;;;;;25.45;15.23;;;21.40;38.00;;;;;;4917357;29;20075;-74
2022/04/09 09:28:26;;;;;;;23.17;13.77;;;21.30;35.90;;;;;;4932818;29;20028;-74
2022/04/09 09:30:53;;;;;;;24.67;12.80;;;21.20;36.90;;;;;;4938263;29;20015;-76
2022/04/09 09:33:20;;;;;;;24.05;12.70;;;21.30;37.80;;;;;;4953379;28;20027;-75
2022/04/09 09:35:56;;;;;;;21.10;13.30;;;21.40;38.10;;;;;;4952212;29;20419;-74
2022/04/09 09:38:29;;;;;;;24.38;11.27;;;21.40;38.50;;;;;;4951957;29;20032;-75
2022/04/09 09:40:57;;;;;;;22.40;11.40;;;21.40;39.10;;;;;;4954157;28;20111;-75
2022/04/09 09:43:25;;;;;;;21.25;11.45;;;21.50;39.40;;;;;;4955955;29;20038;-75
2022/04/09 09:45:53;;;;;;;30.73;13.32;;;21.50;39.70;;;;;;4957006;28;20423;-75
2022/04/09 09:48:23;;;;;;;29.50;12.95;;;21.60;40.20;;;;;;4948810;28;20146;-74
2022/04/09 09:50:51;;;;;;;25.10;12.75;;;21.60;40.50;;;;;;4933097;29;20396;-73
2022/04/09 09:53:30;;;;;;;30.38;14.05;;;21.60;40.60;;;;;;4952956;29;20031;-75
2022/04/09 09:55:56;;;;;;;30.03;13.93;;;21.60;41.10;;;;;;4955083;28;20027;-75
2022/04/09 09:58:23;;;;;;;36.05;15.20;;;21.60;41.50;;;;;;4952671;28;20027;-79
2022/04/09 10:00:49;;;;;;;24.77;10.70;;;21.60;40.80;;;;;;4937598;29;20047;-80
2022/04/09 10:03:16;;;;;;;28.48;10.85;;;21.50;40.60;;;;;;4937631;29;20046;-74
2022/04/09 10:05:43;;;;;;;21.48;11.25;;;21.40;39.30;;;;;;4937593;29;20042;-74
2022/04/09 10:08:09;;;;;;;29.30;11.98;;;21.50;40.30;;;;;;4939144;29;20031;-75
2022/04/09 10:10:36;;;;;;;28.55;10.20;;;21.60;48.00;;;;;;4936541;29;20027;-74
2022/04/09 10:13:04;;;;;;;39.13;11.35;;;21.60;43.10;;;;;;4937342;29;20068;-74
2022/04/09 10:15:31;;;;;;;26.65;11.20;;;21.70;50.40;;;;;;4937455;29;20396;-73
2022/04/09 10:17:58;;;;;;;25.50;10.70;;;21.70;50.30;;;;;;4945698;29;20035;-74
2022/04/09 10:20:25;;;;;;;26.63;10.57;;;21.70;47.30;;;;;;4956456;28;20091;-74
2022/04/09 10:22:55;;;;;;;21.88;9.82;;;21.80;49.60;;;;;;4955293;28;20405;-74
2022/04/09 10:25:32;;;;;;;20.35;9.88;;;21.80;48.70;;;;;;4956382;29;20086;-74
2022/04/09 10:28:02;;;;;;;23.08;9.75;;;21.80;48.70;;;;;;4947271;29;20043;-75
2022/04/09 10:30:36;;;;;;;23.48;9.68;;;21.80;48.70;;;;;;4937399;29;20038;-74
2022/04/09 10:33:02;;;;;;;26.45;9.88;;;21.80;48.70;;;;;;4937040;29;20027;-74
2022/04/09 10:35:38;;;;;;;23.23;10.02;;;21.80;49.00;;;;;;4937067;29;20393;-74
2022/04/09 10:38:07;;;;;;;20.08;9.65;;;21.80;49.10;;;;;;4945417;29;20388;-72
2022/04/09 10:40:33;;;;;;;23.60;9.57;;;21.80;49.70;;;;;;4956041;28;20031;-72
2022/04/09 10:42:59;;;;;;;17.52;5.03;;;21.80;51.20;;;;;;4956051;29;20408;-72
2022/04/09 10:45:32;;;;;;;11.93;4.13;;;21.60;46.40;;;;;;4955019;29;20046;-72
2022/04/09 10:48:10;;;;;;;13.00;4.10;;;21.40;42.80;;;;;;4952762;29;20122;-72
2022/04/09 10:51:07;;;;;;;17.55;5.18;;;21.30;40.30;;;;;;4938730;28;20548;-75
2022/04/09 10:53:34;;;;;;;13.68;5.22;;;21.20;38.60;;;;;;4955751;29;20451;-78
2022/04/09 10:56:11;;;;;;;15.73;5.10;;;21.20;39.50;;;;;;4955993;28;20564;-82
2022/04/09 10:59:00;;;;;;;22.40;11.45;;;21.10;38.40;;;;;;4935278;29;20031;-82
2022/04/09 11:01:46;;;;;;;18.90;10.07;;;21.10;37.60;;;;;;4936899;29;20545;-81
2022/04/09 11:07:05;;;;;;;20.23;7.63;;;21.00;36.30;;;;;;4937038;29;20027;-75
2022/04/09 11:09:44;;;;;;;20.90;7.25;;;21.10;37.30;;;;;;4954840;29;20126;-75
2022/04/09 11:12:21;;;;;;;20.33;7.70;;;21.10;36.60;;;;;;4955430;28;20027;-75
2022/04/09 11:14:48;;;;;;;15.57;7.28;;;21.10;37.80;;;;;;4937831;29;20047;-74
2022/04/09 11:17:18;;;;;;;14.18;6.97;;;21.20;37.70;;;;;;4952856;29;20033;-75
2022/04/09 11:19:45;;;;;;;18.05;6.70;;;21.30;37.70;;;;;;4936161;29;20042;-75
2022/04/09 11:22:11;;;;;;;15.30;6.88;;;21.30;37.90;;;;;;4936172;29;20103;-75
2022/04/09 11:24:41;;;;;;;14.98;7.05;;;21.30;38.30;;;;;;4936033;29;20114;-75
2022/04/09 11:27:07;;;;;;;12.35;6.18;;;21.40;38.60;;;;;;4935795;29;20040;-75
2022/04/09 11:29:34;;;;;;;15.07;6.10;;;21.40;38.60;;;;;;4937696;29;20396;-75
2022/04/09 11:32:00;;;;;;;16.10;7.10;;;21.40;39.10;;;;;;4954964;28;20038;-74
2022/04/09 11:34:26;;;;;;;21.33;6.65;;;21.40;39.10;;;;;;4953726;29;20023;-74
2022/04/09 11:37:12;;;;;;;14.75;6.30;;;21.40;39.40;;;;;;4954908;28;20054;-74
2022/04/09 11:39:39;;;;;;;14.73;6.47;;;21.40;39.50;;;;;;4935839;29;20092;-74
2022/04/09 11:42:06;;;;;;;12.02;6.07;;;21.50;40.10;;;;;;4944457;29;20031;-75
2022/04/09 11:44:32;;;;;;;13.75;6.07;;;21.40;39.60;;;;;;4940185;29;20520;-75
2022/04/09 11:47:07;;;;;;;12.52;6.05;;;21.40;40.80;;;;;;4935198;29;20043;-74
2022/04/09 11:49:33;;;;;;;12.88;6.15;;;21.40;40.40;;;;;;4934451;29;20027;-75
2022/04/09 11:51:58;;;;;;;10.68;5.53;;;21.40;40.40;;;;;;4934299;29;20028;-75
2022/04/09 11:54:25;;;;;;;11.68;5.82;;;21.50;40.80;;;;;;4935435;29;20036;-75
2022/04/09 11:56:51;;;;;;;13.15;5.70;;;21.50;41.60;;;;;;4937203;29;20039;-75
2022/04/09 11:59:17;;;;;;;11.77;5.90;;;21.50;40.70;;;;;;4954168;28;20259;-75
2022/04/09 12:01:46;;;;;;;11.38;5.50;;;21.50;41.00;;;;;;4954402;29;20093;-75
2022/04/09 12:04:14;;;;;;;12.23;5.95;;;21.50;41.20;;;;;;4952731;28;20074;-76
2022/04/09 12:06:40;;;;;;;13.05;5.40;;;21.50;41.50;;;;;;4952749;29;20027;-75
2022/04/09 12:09:06;;;;;;;11.93;5.85;;;21.40;41.40;;;;;;4933617;29;20035;-75
2022/04/09 12:11:32;;;;;;;11.32;5.47;;;21.50;41.70;;;;;;4918445;29;20039;-74
2022/04/09 12:14:08;;;;;;;14.65;5.65;;;21.50;41.50;;;;;;4934056;29;20028;-75
2022/04/09 12:16:38;;;;;;;13.40;8.02;;;21.50;42.30;;;;;;4935262;29;20031;-75
2022/04/09 12:19:08;;;;;;;11.07;5.10;;;21.50;41.80;;;;;;4934845;29;20032;-75
2022/04/09 12:21:38;;;;;;;;;;;21.50;42.00;;;;;;4935448;29;20079;-74
2022/04/09 12:24:08;;;;;;;9.73;4.95;;;21.50;42.10;;;;;;4936043;29;20410;-75
2022/04/09 12:26:43;;;;;;;10.80;5.28;;;21.50;42.10;;;;;;4933624;29;20488;-75
2022/04/09 12:29:18;;;;;;;9.80;5.43;;;21.50;42.30;;;;;;4934628;29;20528;-75
2022/04/09 12:31:48;;;;;;;10.45;5.25;;;21.50;42.80;;;;;;4902378;29;20039;-75
2022/04/09 12:34:15;;;;;;;8.90;4.70;;;21.50;42.70;;;;;;4947919;29;20027;-75
2022/04/09 12:37:04;;;;;;;11.18;4.93;;;21.50;42.90;;;;;;4953998;28;20102;-75
2022/04/09 12:39:33;;;;;;;9.02;4.90;;;21.50;42.80;;;;;;4953920;28;20058;-74
2022/04/09 12:41:59;;;;;;;9.40;4.72;;;21.50;42.80;;;;;;4953854;29;20027;-75
2022/04/09 12:44:27;;;;;;;8.07;4.40;;;21.50;42.80;;;;;;4940588;28;20108;-75